Time;durP1;ratioP1;P1;durP2;ratioP2;P2;SDS_P1;SDS_P2;PMS_P1;PMS_P2;Temp;Humidity;BMP_temperature;BMP_pressure;BME280_temperature;BME280_humidity;BME280_pressure;Samples;Min_cycle;Max_cycle;Signal;HPM_P1;HPM_P2
2022/06/12 00:00:30;;;;;;;;;;;18.00;67.90;;;;;;5035097;28;19909;-69
2022/06/12 00:02:57;;;;;;;;;;;17.80;68.20;;;;;;5035473;28;20254;-69
2022/06/12 00:05:24;;;;;;;;;;;17.80;68.50;;;;;;5035327;28;20000;-69
2022/06/12 00:07:50;;;;;;;;;;;17.60;68.90;;;;;;5035411;28;19915;-69
2022/06/12 00:10:15;;;;;;;;;;;17.60;69.00;;;;;;5034963;28;20329;-70
2022/06/12 00:12:42;;;;;;;;;;;17.60;69.10;;;;;;5035189;28;19910;-71
2022/06/12 00:15:09;;;;;;;;;;;17.50;69.70;;;;;;5035080;28;19955;-71
2022/06/12 00:17:34;;;;;;;;;;;17.40;70.20;;;;;;5035121;28;19913;-71
2022/06/12 00:20:00;;;;;;;;;;;17.40;70.00;;;;;;5034914;28;19909;-71
2022/06/12 00:22:25;;;;;;;;;;;17.40;70.10;;;;;;5035048;28;19913;-71
2022/06/12 00:24:51;;;;;;;;;;;17.30;70.40;;;;;;5034884;28;19913;-71
2022/06/12 00:27:17;;;;;;;;;;;17.20;70.90;;;;;;5035174;28;20347;-71
2022/06/12 00:29:44;;;;;;;;;;;17.20;70.90;;;;;;5034520;28;19913;-71
2022/06/12 00:32:14;;;;;;;;;;;17.20;70.90;;;;;;5034956;28;20277;-71
2022/06/12 00:34:59;;;;;;;;;;;17.20;71.00;;;;;;5034740;28;19988;-71
2022/06/12 00:37:25;;;;;;;;;;;17.20;70.80;;;;;;5035089;28;19916;-71
2022/06/12 00:39:52;;;;;;;;;;;17.10;71.10;;;;;;5034389;28;20245;-71
2022/06/12 00:42:29;;;;;;;;;;;17.00;71.50;;;;;;5034879;28;19909;-71
2022/06/12 00:44:57;;;;;;;;;;;17.00;71.10;;;;;;5034776;28;19920;-71
2022/06/12 00:47:23;;;;;;;;;;;17.10;71.30;;;;;;5034935;28;20003;-71
2022/06/12 00:49:51;;;;;;;;;;;16.90;72.00;;;;;;5033186;28;19995;-71
2022/06/12 00:52:22;;;;;;;;;;;17.00;71.90;;;;;;5034746;28;19916;-72
2022/06/12 00:54:50;;;;;;;;;;;16.90;72.40;;;;;;5034413;28;19948;-71
2022/06/12 00:57:17;;;;;;;;;;;16.90;72.70;;;;;;5034601;28;20007;-72
2022/06/12 00:59:42;;;;;;;;;;;16.80;73.10;;;;;;5034021;28;20324;-71
2022/06/12 01:02:10;;;;;;;;;;;16.80;73.20;;;;;;5034417;28;19915;-68
2022/06/12 01:07:22;;;;;;;;;;;16.80;72.90;;;;;;5036002;28;19963;-70
2022/06/12 01:09:50;;;;;;;;;;;16.70;74.20;;;;;;5033740;28;19916;-70
2022/06/12 01:12:18;;;;;;;;;;;16.60;74.40;;;;;;5034223;28;19913;-71
2022/06/12 01:14:49;;;;;;;;;;;16.70;73.70;;;;;;5034088;28;19909;-69
2022/06/12 01:17:15;;;;;;;;;;;16.80;73.90;;;;;;5034133;28;19917;-69
2022/06/12 01:19:48;;;;;;;;;;;17.10;73.00;;;;;;5033848;28;19940;-69
2022/06/12 01:22:19;;;;;;;;;;;17.30;71.80;;;;;;5034130;28;19909;-71
2022/06/12 01:25:03;;;;;;;;;;;17.40;71.40;;;;;;5033721;28;19917;-71
2022/06/12 01:27:38;;;;;;;;;;;17.50;71.40;;;;;;5033876;28;19913;-71
2022/06/12 01:30:08;;;;;;;;;;;17.20;72.70;;;;;;5033453;28;19913;-71
2022/06/12 01:32:39;;;;;;;;;;;17.10;73.40;;;;;;5033797;28;19913;-70
2022/06/12 01:35:05;;;;;;;;;;;16.90;74.60;;;;;;5033759;28;20050;-69
2022/06/12 01:37:39;;;;;;;;;;;16.80;74.60;;;;;;5033795;28;19967;-70
2022/06/12 01:40:05;;;;;;;;;;;16.70;75.40;;;;;;5033351;28;19909;-70
2022/06/12 01:42:46;;;;;;;;;;;16.70;75.40;;;;;;5033694;28;19916;-69
2022/06/12 01:45:34;;;;;;;;;;;16.60;76.10;;;;;;5033398;28;19913;-69
2022/06/12 01:48:19;;;;;;;;;;;16.60;75.80;;;;;;5033685;28;19909;-69
2022/06/12 01:50:44;;;;;;;;;;;16.50;76.10;;;;;;5033256;28;19910;-69
2022/06/12 01:53:09;;;;;;;;;;;16.50;75.90;;;;;;5033418;28;19956;-69
2022/06/12 01:55:44;;;;;;;;;;;16.60;75.80;;;;;;5033311;28;20231;-69
2022/06/12 01:58:28;;;;;;;;;;;16.50;76.10;;;;;;5033426;28;20393;-69
2022/06/12 02:00:58;;;;;;;;;;;16.50;76.50;;;;;;5032914;28;19909;-69
2022/06/12 02:03:23;;;;;;;;;;;16.50;76.00;;;;;;5032938;28;19959;-70
2022/06/12 02:06:12;;;;;;;;;;;16.50;75.90;;;;;;5032759;28;19913;-69
2022/06/12 02:08:40;;;;;;;;;;;16.50;75.80;;;;;;5032497;28;19909;-73
2022/06/12 02:14:06;;;;;;;;;;;16.60;74.90;;;;;;5034699;28;19916;-70
2022/06/12 02:16:34;;;;;;;;;;;16.50;74.90;;;;;;5032636;28;19913;-70
2022/06/12 02:19:04;;;;;;;;;;;16.30;76.00;;;;;;5032248;28;19978;-71
2022/06/12 02:21:34;;;;;;;;;;;16.30;76.00;;;;;;5032474;28;20400;-71
2022/06/12 02:24:03;;;;;;;;;;;16.20;76.70;;;;;;5032485;28;20246;-69
2022/06/12 02:26:57;;;;;;;;;;;16.10;76.80;;;;;;5032707;28;19916;-70
2022/06/12 02:29:25;;;;;;;;;;;16.10;77.20;;;;;;5032265;28;19913;-70
2022/06/12 02:31:52;;;;;;;;;;;16.10;76.60;;;;;;5032793;28;20393;-69
2022/06/12 02:34:27;;;;;;;;;;;16.00;76.40;;;;;;5033832;28;19979;-69
2022/06/12 02:36:58;;;;;;;;;;;16.00;76.60;;;;;;5032732;28;19909;-69
2022/06/12 02:39:26;;;;;;;;;;;16.00;76.70;;;;;;5032262;28;19913;-69
2022/06/12 02:42:17;;;;;;;;;;;16.00;76.90;;;;;;5032540;28;20004;-69
2022/06/12 02:44:43;;;;;;;;;;;15.90;77.40;;;;;;5031842;28;20003;-69
2022/06/12 02:47:10;;;;;;;;;;;15.90;77.30;;;;;;5032406;28;20396;-68
2022/06/12 02:49:37;;;;;;;;;;;15.80;77.70;;;;;;5031975;28;19909;-69
2022/06/12 02:52:35;;;;;;;;;;;15.80;77.50;;;;;;5033592;28;19963;-69
2022/06/12 02:55:18;;;;;;;;;;;15.80;77.40;;;;;;5020776;28;20325;-69
2022/06/12 02:57:51;;;;;;;;;;;15.80;77.30;;;;;;5032323;28;19912;-68
2022/06/12 03:00:34;;;;;;;;;;;15.80;77.20;;;;;;5031880;28;19913;-68
2022/06/12 03:03:11;;;;;;;;;;;15.80;76.90;;;;;;5032065;28;19910;-68
2022/06/12 03:05:39;;;;;;;;;;;15.60;77.30;;;;;;5032047;28;19913;-70
2022/06/12 03:08:16;;;;;;;;;;;15.60;77.00;;;;;;5032189;28;19958;-72
2022/06/12 03:10:54;;;;;;;;;;;15.50;77.70;;;;;;5031700;28;20354;-71
2022/06/12 03:13:21;;;;;;;;;;;15.50;77.40;;;;;;5033958;28;19909;-71
2022/06/12 03:15:47;;;;;;;;;;;15.50;77.90;;;;;;5036174;28;19920;-72
2022/06/12 03:18:19;;;;;;;;;;;15.40;77.90;;;;;;5036253;28;20340;-70
2022/06/12 03:21:05;;;;;;;;;;;15.40;78.30;;;;;;5035722;28;19955;-70
2022/06/12 03:23:54;;;;;;;;;;;15.40;78.60;;;;;;5035990;28;19967;-70
2022/06/12 03:26:38;;;;;;;;;;;15.40;78.60;;;;;;5036080;28;20271;-69
2022/06/12 03:29:04;;;;;;;;;;;15.40;79.80;;;;;;5035603;28;19912;-69
2022/06/12 03:31:39;;;;;;;;;;;15.50;80.10;;;;;;5035847;28;19917;-69
2022/06/12 03:34:11;;;;;;;;;;;15.60;79.70;;;;;;5035879;28;19909;-69
2022/06/12 03:36:47;;;;;;;;;;;15.50;80.30;;;;;;5035830;28;19963;-69
2022/06/12 03:39:18;;;;;;;;;;;15.50;80.50;;;;;;5036826;28;19967;-69
2022/06/12 03:42:02;;;;;;;;;;;15.50;80.10;;;;;;5035665;28;19909;-69
2022/06/12 03:44:41;;;;;;;;;;;15.70;79.60;;;;;;5035555;28;19978;-69
2022/06/12 03:47:14;;;;;;;;;;;15.80;79.10;;;;;;5035453;28;19960;-69
2022/06/12 03:49:46;;;;;;;;;;;16.00;77.50;;;;;;5035396;28;19916;-69
2022/06/12 03:52:15;;;;;;;;;;;16.20;76.50;;;;;;5035569;28;20235;-71
2022/06/12 03:54:46;;;;;;;;;;;16.00;77.30;;;;;;5035478;28;19913;-71
2022/06/12 04:00:06;;;;;;;;;;;15.90;79.10;;;;;;5036699;28;20247;-71
2022/06/12 04:02:32;;;;;;;;;;;15.80;79.20;;;;;;5035368;28;19909;-70
2022/06/12 04:04:58;;;;;;;;;;;15.90;78.70;;;;;;5035212;28;19913;-70
2022/06/12 04:07:25;;;;;;;;;;;15.90;78.40;;;;;;5035349;28;19955;-70
2022/06/12 04:09:52;;;;;;;;;;;15.90;78.80;;;;;;5034898;28;19913;-69
2022/06/12 04:12:23;;;;;;;;;;;15.90;78.60;;;;;;5035178;28;19910;-69
2022/06/12 04:14:56;;;;;;;;;;;15.80;79.30;;;;;;5034854;28;20342;-69
2022/06/12 04:17:22;;;;;;;;;;;15.90;79.50;;;;;;5035188;28;19909;-70
2022/06/12 04:20:00;;;;;;;;;;;16.00;78.00;;;;;;5034758;28;20254;-70
2022/06/12 04:22:40;;;;;;;;;;;16.20;76.50;;;;;;5035082;28;20003;-71
2022/06/12 04:25:26;;;;;;;;;;;16.30;76.30;;;;;;5034787;28;19935;-71
2022/06/12 04:27:51;;;;;;;;;;;16.30;76.30;;;;;;5034623;28;19916;-70
2022/06/12 04:30:29;;;;;;;;;;;16.30;76.10;;;;;;5034188;28;19921;-71
2022/06/12 04:33:04;;;;;;;;;;;16.50;75.20;;;;;;5034754;28;20527;-72
2022/06/12 04:35:33;;;;;;;;;;;16.50;74.80;;;;;;5034677;28;19909;-70
2022/06/12 04:37:59;;;;;;;;;;;16.60;74.60;;;;;;5035064;28;19909;-70
2022/06/12 04:40:26;;;;;;;;;;;16.50;74.80;;;;;;5034283;28;19963;-70
2022/06/12 04:42:53;;;;;;;;;;;16.70;74.00;;;;;;5034725;28;19940;-71
2022/06/12 04:45:18;;;;;;;;;;;16.90;73.30;;;;;;5034504;28;20357;-70
2022/06/12 04:47:44;;;;;;;;;;;17.00;72.90;;;;;;5034547;28;19910;-71
2022/06/12 04:50:14;;;;;;;;;;;17.10;72.30;;;;;;5034047;28;19998;-70
2022/06/12 04:52:40;;;;;;;;;;;17.20;71.60;;;;;;5034624;28;19909;-71
2022/06/12 04:55:07;;;;;;;;;;;17.30;71.40;;;;;;5034429;28;19917;-71
2022/06/12 04:57:32;;;;;;;;;;;17.30;71.00;;;;;;5034587;28;19917;-70
2022/06/12 04:59:58;;;;;;;;;;;17.30;71.80;;;;;;5034032;28;20287;-70
2022/06/12 05:02:24;;;;;;;;;;;17.50;71.00;;;;;;5034374;28;19909;-70
2022/06/12 05:04:50;;;;;;;;;;;17.50;70.50;;;;;;5034142;28;19913;-70
2022/06/12 05:07:15;;;;;;;;;;;17.80;70.10;;;;;;5034196;28;19909;-71
2022/06/12 05:09:41;;;;;;;;;;;17.90;69.00;;;;;;5033821;28;19913;-74
2022/06/12 05:12:07;;;;;;;;;;;18.00;68.80;;;;;;5034259;28;19963;-72
2022/06/12 05:14:33;;;;;;;;;;;18.00;69.40;;;;;;5034105;28;19908;-73
2022/06/12 05:17:00;;;;;;;;;;;18.10;68.70;;;;;;5034169;28;20003;-72
2022/06/12 05:19:28;;;;;;;;;;;18.20;68.40;;;;;;5033632;28;19949;-73
2022/06/12 05:21:53;;;;;;;;;;;18.30;67.30;;;;;;5034088;28;20354;-73
2022/06/12 05:24:19;;;;;;;;;;;18.50;66.80;;;;;;5032745;28;19920;-73
2022/06/12 05:26:46;;;;;;;;;;;18.80;66.70;;;;;;5034010;28;19909;-78
2022/06/12 05:29:15;;;;;;;;;;;18.80;66.00;;;;;;5033404;28;20273;-73
2022/06/12 05:31:40;;;;;;;;;;;19.10;65.00;;;;;;5033517;28;19917;-73
2022/06/12 05:34:06;;;;;;;;;;;19.00;65.50;;;;;;5033685;28;19916;-73
2022/06/12 05:36:31;;;;;;;;;;;19.00;64.50;;;;;;5033094;28;19916;-73
2022/06/12 05:38:57;;;;;;;;;;;19.20;64.20;;;;;;5033173;28;19916;-73
2022/06/12 05:41:22;;;;;;;;;;;19.30;64.10;;;;;;5033539;28;20060;-74
2022/06/12 05:43:48;;;;;;;;;;;19.40;63.10;;;;;;5033330;28;19924;-73
2022/06/12 05:46:14;;;;;;;;;;;19.60;62.80;;;;;;5033447;28;19913;-73
2022/06/12 05:48:41;;;;;;;;;;;19.70;62.30;;;;;;5034675;28;19912;-73
2022/06/12 05:51:06;;;;;;;;;;;19.90;61.70;;;;;;5033205;28;20024;-74
2022/06/12 05:53:33;;;;;;;;;;;20.00;60.70;;;;;;5033334;28;19909;-73
2022/06/12 05:55:59;;;;;;;;;;;20.10;60.20;;;;;;5033213;28;19916;-71
2022/06/12 05:58:26;;;;;;;;;;;20.40;59.60;;;;;;5033031;28;19905;-71
2022/06/12 06:00:52;;;;;;;;;;;20.50;59.00;;;;;;5034312;28;20338;-68
2022/06/12 06:03:18;;;;;;;;;;;20.70;58.40;;;;;;5032888;28;20000;-68
2022/06/12 06:05:44;;;;;;;;;;;20.90;58.30;;;;;;5050344;28;20004;-67
2022/06/12 06:08:10;;;;;;;;;;;21.40;57.20;;;;;;5054234;28;19948;-68
2022/06/12 06:10:36;;;;;;;;;;;22.10;56.10;;;;;;5052515;28;19959;-68
2022/06/12 06:13:02;;;;;;;;;;;22.80;54.20;;;;;;5052994;28;19916;-67
2022/06/12 06:15:28;;;;;;;;;;;23.40;53.50;;;;;;5052730;28;19916;-70
2022/06/12 06:17:54;;;;;;;;;;;23.70;52.60;;;;;;5065497;28;20012;-68
2022/06/12 06:20:24;;;;;;;;;;;24.00;51.90;;;;;;5070339;28;19995;-69
2022/06/12 06:22:50;;;;;;;;;;;24.30;51.40;;;;;;5050028;28;19920;-72
2022/06/12 06:25:16;;;;;;;;;;;24.50;51.10;;;;;;5052443;28;19913;-72
2022/06/12 06:27:41;;;;;;;;;;;24.70;51.30;;;;;;5052252;28;19958;-72
2022/06/12 06:30:07;;;;;;;;;;;24.90;50.20;;;;;;5051720;28;19917;-72
2022/06/12 06:32:33;;;;;;;;;;;25.20;49.90;;;;;;5038320;28;19999;-72
2022/06/12 06:35:00;;;;;;;;;;;25.30;49.50;;;;;;5032212;28;20326;-73
2022/06/12 06:37:25;;;;;;;;;;;25.40;48.60;;;;;;5033659;28;19991;-73
2022/06/12 06:39:51;;;;;;;;;;;25.50;48.70;;;;;;5052021;28;19963;-72
2022/06/12 06:42:17;;;;;;;;;;;25.70;48.20;;;;;;5047400;28;20560;-72
2022/06/12 06:47:27;;;;;;;;;;;25.80;47.80;;;;;;5041668;28;20480;-74
2022/06/12 06:49:53;;;;;;;;;;;25.90;47.50;;;;;;5042863;28;20268;-71
2022/06/12 06:52:21;;;;;;;;;;;25.90;47.50;;;;;;5051303;28;19913;-71
2022/06/12 06:54:47;;;;;;;;;;;25.90;47.40;;;;;;5047412;28;19947;-70
2022/06/12 06:57:12;;;;;;;;;;;25.90;47.20;;;;;;5038432;28;20039;-71
2022/06/12 06:59:38;;;;;;;;;;;25.90;46.90;;;;;;5058960;28;20361;-70
2022/06/12 07:02:04;;;;;;;;;;;25.90;46.80;;;;;;5070403;28;19939;-71
2022/06/12 07:04:30;;;;;;;;;;;26.00;46.30;;;;;;5071194;28;19912;-72
2022/06/12 07:06:55;;;;;;;;;;;26.10;46.00;;;;;;5071282;28;19915;-71
2022/06/12 07:09:21;;;;;;;;;;;;;;;;;;5070844;28;19908;-72
2022/06/12 07:11:46;;;;;;;;;;;26.40;45.00;;;;;;5071145;28;20361;-71
2022/06/12 07:14:12;;;;;;;;;;;26.70;44.80;;;;;;5071067;28;19913;-69
2022/06/12 07:16:39;;;;;;;;;;;26.80;44.30;;;;;;5071678;28;19947;-70
2022/06/12 07:19:05;;;;;;;;;;;27.00;44.00;;;;;;5071484;28;19961;-70
2022/06/12 07:21:31;;;;;;;;;;;27.10;43.50;;;;;;5071713;28;19915;-72
2022/06/12 07:23:56;;;;;;;;;;;27.30;42.90;;;;;;5071702;28;19913;-71
2022/06/12 07:26:28;;;;;;;;;;;27.60;42.40;;;;;;5071682;28;19908;-72
2022/06/12 07:28:54;;;;;;;;;;;27.80;41.90;;;;;;5071314;28;19923;-72
2022/06/12 07:31:20;;;;;;;;;;;28.00;41.80;;;;;;5071669;28;19958;-71
2022/06/12 07:33:45;;;;;;;;;;;28.20;41.40;;;;;;5071594;28;19966;-70
2022/06/12 07:36:12;;;;;;;;;;;28.50;41.20;;;;;;5071647;28;20384;-71
2022/06/12 07:38:38;;;;;;;;;;;28.50;40.40;;;;;;5071328;28;20010;-70
2022/06/12 07:41:06;;;;;;;;;;;28.70;40.50;;;;;;5072766;28;19917;-70
2022/06/12 07:43:35;;;;;;;;;;;28.80;40.40;;;;;;5072696;28;19936;-70
2022/06/12 07:46:02;;;;;;;;;;;28.80;40.50;;;;;;5071436;28;19908;-71
2022/06/12 07:48:28;;;;;;;;;;;28.90;40.30;;;;;;5071176;28;19909;-71
2022/06/12 07:50:54;;;;;;;;;;;28.80;40.30;;;;;;5071376;28;19916;-70
2022/06/12 07:53:21;;;;;;;;;;;28.70;40.50;;;;;;5071399;28;19928;-72
2022/06/12 07:55:47;;;;;;;;;;;28.60;41.10;;;;;;5071346;28;19908;-72
2022/06/12 07:58:13;;;;;;;;;;;28.40;41.30;;;;;;5071346;28;20448;-72
2022/06/12 08:00:38;;;;;;;;;;;28.30;41.70;;;;;;5074706;28;19995;-71
2022/06/12 08:03:05;;;;;;;;;;;28.20;41.80;;;;;;5075039;28;19960;-71
2022/06/12 08:05:32;;;;;;;;;;;28.10;42.00;;;;;;5074904;28;20312;-72
2022/06/12 08:07:58;;;;;;;;;;;28.10;42.20;;;;;;5075007;28;19955;-71
2022/06/12 08:10:23;;;;;;;;;;;28.10;42.40;;;;;;5074576;28;19952;-70
2022/06/12 08:12:49;;;;;;;;;;;28.10;43.20;;;;;;5074896;28;19909;-71
2022/06/12 08:15:18;;;;;;;;;;;28.10;42.80;;;;;;5074964;28;19915;-70
2022/06/12 08:17:43;;;;;;;;;;;28.10;42.80;;;;;;5074573;28;19939;-71
2022/06/12 08:20:25;;;;;;;;;;;28.30;43.40;;;;;;5074209;28;20248;-71
2022/06/12 08:22:51;;;;;;;;;;;28.30;42.60;;;;;;5075842;28;19909;-71
2022/06/12 08:25:17;;;;;;;;;;;28.60;42.60;;;;;;5074181;28;20378;-72
2022/06/12 08:27:42;;;;;;;;;;;28.80;42.00;;;;;;5074558;28;19954;-70
2022/06/12 08:30:08;;;;;;;;;;;28.90;41.50;;;;;;5073972;28;20359;-71
2022/06/12 08:32:34;;;;;;;;;;;29.00;41.50;;;;;;5074484;28;20272;-70
2022/06/12 08:35:01;;;;;;;;;;;29.00;41.10;;;;;;5074379;28;19916;-71
2022/06/12 08:37:32;;;;;;;;;;;29.10;41.00;;;;;;5074439;28;19912;-69
2022/06/12 08:39:58;;;;;;;;;;;29.20;40.60;;;;;;5074095;28;19912;-71
2022/06/12 08:42:27;;;;;;;;;;;29.20;40.60;;;;;;5074332;28;19974;-70
2022/06/12 08:45:10;;;;;;;;;;;29.20;40.80;;;;;;5074193;28;19920;-71
2022/06/12 08:47:36;;;;;;;;;;;29.10;40.70;;;;;;5074227;28;20392;-70
2022/06/12 08:50:12;;;;;;;;;;;28.90;40.70;;;;;;5073962;28;19958;-69
2022/06/12 08:52:38;;;;;;;;;;;28.80;41.10;;;;;;5074164;28;19962;-69
2022/06/12 08:55:09;;;;;;;;;;;28.70;41.20;;;;;;5074005;28;19909;-71
2022/06/12 08:57:54;;;;;;;;;;;28.50;41.30;;;;;;5074137;28;20376;-70
2022/06/12 09:00:21;;;;;;;;;;;28.40;41.40;;;;;;5073748;28;19915;-69
2022/06/12 09:02:47;;;;;;;;;;;28.30;41.70;;;;;;5074428;28;19908;-71
2022/06/12 09:05:16;;;;;;;;;;;28.30;42.50;;;;;;5074209;28;19951;-71
2022/06/12 09:07:41;;;;;;;;;;;28.00;42.10;;;;;;5074171;28;19915;-70
2022/06/12 09:10:26;;;;;;;;;;;27.90;42.60;;;;;;5073171;28;19912;-71
2022/06/12 09:12:55;;;;;;;;;;;27.90;42.20;;;;;;5074058;28;19912;-71
2022/06/12 09:15:41;;;;;;;;;;;27.80;42.30;;;;;;5073847;28;19915;-69
2022/06/12 09:18:20;;;;;;;;;;;27.80;42.50;;;;;;5074095;28;20317;-71
2022/06/12 09:20:46;;;;;;;;;;;27.70;42.60;;;;;;5073717;28;20284;-71
2022/06/12 09:23:14;;;;;;;;;;;27.70;42.50;;;;;;5074003;28;19912;-69
2022/06/12 09:25:50;;;;;;;;;;;27.70;42.50;;;;;;5073743;28;19909;-68
2022/06/12 09:28:39;;;;;;;;;;;27.70;42.70;;;;;;5073861;28;19955;-70
2022/06/12 09:31:11;;;;;;;;;;;27.70;42.70;;;;;;5075081;28;19923;-70
2022/06/12 09:33:36;;;;;;;;;;;27.50;42.70;;;;;;5073547;28;19913;-68
2022/06/12 09:36:08;;;;;;;;;;;27.80;41.90;;;;;;5073583;28;19959;-70
2022/06/12 09:38:37;;;;;;;;;;;27.70;42.50;;;;;;5073346;28;19912;-70
2022/06/12 09:41:12;;;;;;;;;;;27.90;42.00;;;;;;5073561;28;19935;-70
2022/06/12 09:43:50;;;;;;;;;;;27.70;42.40;;;;;;5046692;28;19938;-73
2022/06/12 09:46:15;;;;;;;;;;;27.50;43.00;;;;;;5049584;28;19962;-72
2022/06/12 09:48:59;;;;;;;;;;;27.30;43.40;;;;;;5052958;28;19909;-72
2022/06/12 09:51:49;;;;;;;;;;;27.00;43.70;;;;;;5053083;28;19908;-70
2022/06/12 09:54:14;;;;;;;;;;;26.90;44.20;;;;;;5049745;28;19952;-71
2022/06/12 09:56:54;;;;;;;;;;;26.70;44.70;;;;;;5042226;28;20353;-70
2022/06/12 09:59:19;;;;;;;;;;;26.60;44.90;;;;;;5048161;28;19932;-71
2022/06/12 10:01:48;;;;;;;;;;;26.40;45.20;;;;;;5048489;28;20366;-71
2022/06/12 10:04:24;;;;;;;;;;;26.20;45.50;;;;;;5045876;28;20377;-73
2022/06/12 10:06:55;;;;;;;;;;;26.10;45.60;;;;;;5042779;28;19909;-73
2022/06/12 10:09:31;;;;;;;;;;;26.20;45.70;;;;;;5040546;28;19912;-72
2022/06/12 10:12:03;;;;;;;;;;;26.10;45.80;;;;;;5067005;28;20007;-72
2022/06/12 10:14:31;;;;;;;;;;;26.10;46.10;;;;;;5070947;28;19918;-70
2022/06/12 10:17:00;;;;;;;;;;;26.00;46.20;;;;;;5049162;28;19982;-69
2022/06/12 10:19:33;;;;;;;;;;;25.90;46.40;;;;;;5044962;28;20003;-69
2022/06/12 10:22:01;;;;;;;;;;;25.90;46.40;;;;;;5031279;28;19908;-71
2022/06/12 10:24:27;;;;;;;;;;;25.80;46.40;;;;;;5049887;28;19920;-71
2022/06/12 10:27:01;;;;;;;;;;;25.70;46.40;;;;;;5072488;28;19935;-71
2022/06/12 10:29:27;;;;;;;;;;;25.70;46.70;;;;;;5070888;28;19912;-70
2022/06/12 10:32:01;;;;;;;;;;;25.60;46.70;;;;;;5071360;28;19917;-71
2022/06/12 10:34:29;;;;;;;;;;;25.60;46.90;;;;;;5072629;28;19908;-71
2022/06/12 10:36:55;;;;;;;;;;;25.50;46.90;;;;;;5042836;28;19913;-70
2022/06/12 10:39:22;;;;;;;;;;;25.40;47.00;;;;;;5031064;28;19967;-70
2022/06/12 10:41:58;;;;;;;;;;;25.40;47.10;;;;;;5030260;28;20358;-69
2022/06/12 10:44:32;;;;;;;;;;;25.40;47.20;;;;;;5031219;28;19917;-69
2022/06/12 10:47:30;;;;;;;;;;;25.40;47.40;;;;;;5031199;28;19913;-71
2022/06/12 10:50:14;;;;;;;;;;;25.30;47.30;;;;;;5019355;28;19913;-71
2022/06/12 10:53:10;;;;;;;;;;;25.30;47.40;;;;;;5042795;28;19979;-69
2022/06/12 10:55:54;;;;;;;;;;;25.20;47.40;;;;;;5042896;28;19920;-71
2022/06/12 10:58:39;;;;;;;;;;;25.20;47.50;;;;;;5044823;28;19996;-71
2022/06/12 11:01:12;;;;;;;;;;;25.10;47.50;;;;;;5047862;28;19909;-70
2022/06/12 11:03:57;;;;;;;;;;;25.10;47.40;;;;;;5047365;28;19921;-70
2022/06/12 11:06:33;;;;;;;;;;;25.10;47.40;;;;;;5042760;28;20389;-72
2022/06/12 11:09:02;;;;;;;;;;;25.10;47.50;;;;;;5036650;28;20000;-73
2022/06/12 11:11:39;;;;;;;;;;;25.10;47.60;;;;;;5044052;28;19913;-71
2022/06/12 11:14:04;;;;;;;;;;;25.00;47.50;;;;;;5046044;28;20003;-72
2022/06/12 11:16:36;;;;;;;;;;;25.10;47.60;;;;;;5048201;28;20015;-71
2022/06/12 11:19:04;;;;;;;;;;;25.00;47.60;;;;;;5056997;28;19913;-70
2022/06/12 11:21:43;;;;;;;;;;;25.00;47.70;;;;;;5052749;28;19913;-72
2022/06/12 11:24:15;;;;;;;;;;;25.00;47.70;;;;;;5045673;28;19921;-73
2022/06/12 11:26:46;;;;;;;;;;;25.00;47.70;;;;;;5068621;28;20026;-72
2022/06/12 11:29:14;;;;;;;;;;;25.00;47.80;;;;;;5044551;28;19912;-78
2022/06/12 11:31:43;;;;;;;;;;;24.90;47.90;;;;;;5041250;28;19923;-78
2022/06/12 11:34:08;;;;;;;;;;;25.00;48.10;;;;;;5049355;28;19952;-77
2022/06/12 11:36:53;;;;;;;;;;;25.00;48.00;;;;;;5053525;28;19940;-76
2022/06/12 11:39:37;;;;;;;;;;;25.00;48.00;;;;;;5052967;28;19928;-78
2022/06/12 11:42:35;;;;;;;;;;;25.00;48.00;;;;;;5038773;28;19975;-79
2022/06/12 11:45:04;;;;;;;;;;;25.00;48.10;;;;;;5057525;28;19921;-81
2022/06/12 11:47:42;;;;;;;;;;;25.00;48.10;;;;;;5048871;28;19936;-84
2022/06/12 11:50:07;;;;;;;;;;;25.00;48.10;;;;;;5034086;28;19913;-81
2022/06/12 11:52:48;;;;;;;;;;;25.00;48.10;;;;;;5034361;28;19920;-78
2022/06/12 11:55:28;;;;;;;;;;;25.00;48.10;;;;;;5048468;28;19919;-78
2022/06/12 11:58:20;;;;;;;;;;;24.90;48.00;;;;;;5052722;28;20349;-81
2022/06/12 12:00:50;;;;;;;;;;;25.00;48.10;;;;;;5046367;28;19914;-80
2022/06/12 12:03:21;;;;;;;;;;;25.00;48.10;;;;;;5054761;28;19916;-81
2022/06/12 12:05:53;;;;;;;;;;;24.90;48.00;;;;;;5053760;28;19915;-82
2022/06/12 12:08:28;;;;;;;;;;;24.90;48.00;;;;;;5054809;28;20011;-78
2022/06/12 12:11:13;;;;;;;;;;;24.90;47.90;;;;;;5054719;28;19913;-80
2022/06/12 12:13:42;;;;;;;;;;;25.10;47.00;;;;;;5053859;28;19979;-81
2022/06/12 12:16:28;;;;;;;;;;;25.10;47.40;;;;;;5054559;28;19915;-80
2022/06/12 12:18:57;;;;;;;;;;;25.10;47.40;;;;;;5052950;28;19923;-69
2022/06/12 12:21:49;;;;;;;;;;;25.10;47.40;;;;;;5048482;28;19932;-69
2022/06/12 12:24:17;;;;;;;;;;;25.20;47.50;;;;;;5052499;28;19952;-68
2022/06/12 12:26:43;;;;;;;;;;;25.10;47.30;;;;;;5055082;28;19915;-69
2022/06/12 12:29:15;;;;;;;;;;;25.10;47.50;;;;;;5053487;28;20023;-69
2022/06/12 12:31:41;;;;;;;;;;;25.10;47.40;;;;;;5053592;28;19924;-69
2022/06/12 12:34:07;;;;;;;;;;;25.10;47.50;;;;;;5053420;28;19919;-69
2022/06/12 12:42:18;;;;;;;;;;;25.10;47.80;;;;;;5055102;28;20054;-69
2022/06/12 12:44:46;;;;;;;;;;;25.10;47.80;;;;;;5052692;28;20083;-68
2022/06/12 12:47:23;;;;;;;;;;;25.10;47.70;;;;;;5052779;28;19954;-68
2022/06/12 12:49:59;;;;;;;;;;;25.10;47.80;;;;;;5052929;28;19935;-68
2022/06/12 12:52:25;;;;;;;;;;;25.10;47.80;;;;;;5043390;28;19956;-69
2022/06/12 12:54:52;;;;;;;;;;;25.10;47.80;;;;;;5034537;28;19963;-70
2022/06/12 12:57:39;;;;;;;;;;;25.10;47.80;;;;;;5042098;28;19913;-68
2022/06/12 13:00:25;;;;;;;;;;;25.20;47.90;;;;;;5046537;28;19920;-69
2022/06/12 13:02:59;;;;;;;;;;;25.20;47.90;;;;;;5043880;28;19916;-68
2022/06/12 13:05:40;;;;;;;;;;;25.20;47.90;;;;;;5065034;28;20027;-67
2022/06/12 13:08:12;;;;;;;;;;;25.30;47.90;;;;;;5066585;28;20011;-67
2022/06/12 13:10:42;;;;;;;;;;;25.30;48.00;;;;;;5048890;28;20344;-68
2022/06/12 13:13:26;;;;;;;;;;;25.30;48.00;;;;;;5034371;28;19917;-67
2022/06/12 13:15:52;;;;;;;;;;;25.40;48.10;;;;;;5059613;28;19948;-70
2022/06/12 13:18:27;;;;;;;;;;;25.30;48.10;;;;;;5052877;28;19944;-70
2022/06/12 13:21:05;;;;;;;;;;;25.30;48.10;;;;;;5041094;28;19914;-70
2022/06/12 13:23:48;;;;;;;;;;;25.30;48.10;;;;;;5032715;28;19917;-69
2022/06/12 13:26:16;;;;;;;;;;;25.30;48.00;;;;;;5040844;28;19916;-69
2022/06/12 13:28:42;;;;;;;;;;;25.30;48.10;;;;;;5073337;28;19992;-69
2022/06/12 13:31:18;;;;;;;;;;;25.30;48.10;;;;;;5072430;28;20335;-69
2022/06/12 13:33:50;;;;;;;;;;;25.30;48.10;;;;;;5072414;28;19917;-70
2022/06/12 13:36:23;;;;;;;;;;;25.30;48.20;;;;;;5072334;28;19948;-69
2022/06/12 13:38:51;;;;;;;;;;;25.30;48.30;;;;;;5071877;28;19913;-69
2022/06/12 13:41:20;;;;;;;;;;;25.40;48.20;;;;;;5073572;28;19995;-69
2022/06/12 13:43:45;;;;;;;;;;;25.40;48.10;;;;;;5050934;28;19988;-69
2022/06/12 13:46:25;;;;;;;;;;;25.40;48.10;;;;;;5072259;28;20015;-70
2022/06/12 13:48:52;;;;;;;;;;;25.30;48.10;;;;;;5071770;28;19982;-70
2022/06/12 13:51:25;;;;;;;;;;;25.30;48.30;;;;;;5071789;28;19916;-70
2022/06/12 13:53:58;;;;;;;;;;;25.30;48.30;;;;;;5067089;28;19925;-70
2022/06/12 13:56:24;;;;;;;;;;;25.40;48.30;;;;;;5067902;28;19962;-71
2022/06/12 13:58:52;;;;;;;;;;;25.40;48.20;;;;;;5051834;28;19916;-71
2022/06/12 14:01:26;;;;;;;;;;;25.40;48.30;;;;;;5036141;28;20313;-71
2022/06/12 14:03:58;;;;;;;;;;;25.40;48.40;;;;;;5030769;28;20009;-71
2022/06/12 14:06:26;;;;;;;;;;;25.40;48.40;;;;;;5031962;28;19917;-71
2022/06/12 14:09:18;;;;;;;;;;;25.40;48.50;;;;;;5064680;28;19913;-72
2022/06/12 14:11:44;;;;;;;;;;;25.40;48.50;;;;;;5066970;28;19912;-73
2022/06/12 14:14:29;;;;;;;;;;;25.40;48.50;;;;;;5071667;28;19974;-71
2022/06/12 14:16:54;;;;;;;;;;;25.40;48.60;;;;;;5059879;28;19921;-72
2022/06/12 14:19:27;;;;;;;;;;;25.40;48.70;;;;;;5031451;28;19919;-72
2022/06/12 14:22:28;;;;;;;;;;;25.40;48.70;;;;;;5070859;28;20364;-73
2022/06/12 14:25:15;;;;;;;;;;;25.40;48.90;;;;;;5053722;28;20003;-72
2022/06/12 14:27:41;;;;;;;;;;;25.20;48.50;;;;;;5069338;28;20003;-72
2022/06/12 14:30:28;;;;;;;;;;;25.20;48.80;;;;;;5071967;28;19918;-71
2022/06/12 14:32:53;;;;;;;;;;;25.20;49.00;;;;;;5071323;28;19916;-71
2022/06/12 14:35:20;;;;;;;;;;;25.20;49.10;;;;;;5035967;28;20272;-71
2022/06/12 14:37:47;;;;;;;;;;;25.20;49.10;;;;;;5030765;28;21481;-70
2022/06/12 14:40:16;;;;;;;;;;;25.20;49.30;;;;;;5055120;28;19920;-70
2022/06/12 14:42:41;;;;;;;;;;;25.10;49.30;;;;;;5071014;28;19916;-69
2022/06/12 14:45:12;;;;;;;;;;;25.10;49.40;;;;;;5069782;28;19916;-69
2022/06/12 14:47:37;;;;;;;;;;;25.10;49.40;;;;;;5072306;28;19920;-70
2022/06/12 14:50:04;;;;;;;;;;;25.20;49.50;;;;;;5070079;28;19917;-70
2022/06/12 14:52:30;;;;;;;;;;;25.20;49.50;;;;;;5034129;28;19909;-70
2022/06/12 14:54:57;;;;;;;;;;;25.20;49.40;;;;;;5031128;28;19913;-71
2022/06/12 14:57:23;;;;;;;;;;;25.20;49.40;;;;;;5051136;28;19962;-69